Nesenie raksti

Ziņas

Par Gliding.lv

Gliding.lv ir interneta vietne par planieriem un planierismu. Šeit būs atrodama informācija par iespējām pamēģināt, iesaistīties un organizēt planierisma aktivitātes. Izmanto Gliding.lv forumu, ja Tev ir kāda tēma diskusijai vai jautājums. Gliding.lv merķis ir informēt un apvienot planierisma interesentus, nodrošinot un apmainoties ar aktuālāko un arī bijušo. Lidojam!

Laiks Rīgā
-1°
overcast clouds
mitrums: 51%
vējš: 7m/s DDA
-1°
Ses
-1°
Svē
0°
Pir
1°
Otr
Meteo-dati no OpenWeatherMap

METAR

EVRA 221820Z 15013KT CAVOK M01/M06 Q1027 R18/090095 NOSIG

EVLA 221820Z AUTO 13009KT 9999 FEW100/// 00/M03 Q1023

EVVA 221820Z AUTO 14007KT CAVOK 00/M03 Q1024

Nesenie raksti

Pāriet uz rīkjoslu